sensor_id;sensor_type;location;lat;lon;timestamp;P1;durP1;ratioP1;P2;durP2;ratioP2
45684;SDS011;46836;48.388;16.210;2023-07-31T00:01:59;2.30;;;2.10;;
45684;SDS011;46836;48.388;16.210;2023-07-31T00:04:26;5.90;;;2.40;;
45684;SDS011;46836;48.388;16.210;2023-07-31T00:06:53;6.00;;;2.53;;
45684;SDS011;46836;48.388;16.210;2023-07-31T00:09:20;3.30;;;2.93;;
45684;SDS011;46836;48.388;16.210;2023-07-31T00:11:47;4.73;;;2.20;;
45684;SDS011;46836;48.388;16.210;2023-07-31T00:14:14;2.37;;;2.17;;
45684;SDS011;46836;48.388;16.210;2023-07-31T00:16:41;2.30;;;2.10;;
45684;SDS011;46836;48.388;16.210;2023-07-31T00:19:08;2.47;;;2.27;;
45684;SDS011;46836;48.388;16.210;2023-07-31T00:21:35;2.27;;;2.00;;
45684;SDS011;46836;48.388;16.210;2023-07-31T00:24:02;2.80;;;2.20;;
45684;SDS011;46836;48.388;16.210;2023-07-31T00:26:30;4.60;;;2.17;;
45684;SDS011;46836;48.388;16.210;2023-07-31T00:28:57;2.60;;;2.10;;
45684;SDS011;46836;48.388;16.210;2023-07-31T00:31:24;2.77;;;2.10;;
45684;SDS011;46836;48.388;16.210;2023-07-31T00:33:51;4.17;;;2.40;;
45684;SDS011;46836;48.388;16.210;2023-07-31T00:36:18;2.83;;;2.23;;
45684;SDS011;46836;48.388;16.210;2023-07-31T00:38:45;4.03;;;2.20;;
45684;SDS011;46836;48.388;16.210;2023-07-31T00:41:12;2.30;;;2.10;;
45684;SDS011;46836;48.388;16.210;2023-07-31T00:43:39;2.67;;;1.90;;
45684;SDS011;46836;48.388;16.210;2023-07-31T00:46:06;2.67;;;2.30;;
45684;SDS011;46836;48.388;16.210;2023-07-31T00:48:33;2.63;;;2.03;;
45684;SDS011;46836;48.388;16.210;2023-07-31T00:51:02;2.27;;;2.07;;
45684;SDS011;46836;48.388;16.210;2023-07-31T00:53:29;7.60;;;2.00;;
45684;SDS011;46836;48.388;16.210;2023-07-31T00:55:56;1.90;;;1.70;;
45684;SDS011;46836;48.388;16.210;2023-07-31T00:58:24;2.30;;;2.10;;
45684;SDS011;46836;48.388;16.210;2023-07-31T01:00:51;2.00;;;1.80;;
45684;SDS011;46836;48.388;16.210;2023-07-31T01:03:19;3.50;;;1.80;;
45684;SDS011;46836;48.388;16.210;2023-07-31T01:05:52;6.70;;;2.30;;
45684;SDS011;46836;48.388;16.210;2023-07-31T01:08:26;2.57;;;2.27;;
45684;SDS011;46836;48.388;16.210;2023-07-31T01:11:14;2.50;;;1.77;;
45684;SDS011;46836;48.388;16.210;2023-07-31T01:13:46;3.63;;;2.00;;
45684;SDS011;46836;48.388;16.210;2023-07-31T01:16:14;2.10;;;1.83;;
45684;SDS011;46836;48.388;16.210;2023-07-31T01:18:41;2.93;;;2.00;;
45684;SDS011;46836;48.388;16.210;2023-07-31T01:21:21;3.20;;;2.20;;
45684;SDS011;46836;48.388;16.210;2023-07-31T01:26:37;2.03;;;1.93;;
45684;SDS011;46836;48.388;16.210;2023-07-31T01:29:10;3.83;;;1.93;;
45684;SDS011;46836;48.388;16.210;2023-07-31T01:31:38;2.47;;;2.20;;
45684;SDS011;46836;48.388;16.210;2023-07-31T01:34:08;3.50;;;2.10;;
45684;SDS011;46836;48.388;16.210;2023-07-31T01:36:37;5.40;;;1.90;;
45684;SDS011;46836;48.388;16.210;2023-07-31T01:39:05;3.80;;;2.20;;
45684;SDS011;46836;48.388;16.210;2023-07-31T01:41:32;2.00;;;1.73;;
45684;SDS011;46836;48.388;16.210;2023-07-31T01:43:59;2.00;;;1.80;;
45684;SDS011;46836;48.388;16.210;2023-07-31T01:46:26;2.00;;;1.80;;
45684;SDS011;46836;48.388;16.210;2023-07-31T01:48:53;3.20;;;2.13;;
45684;SDS011;46836;48.388;16.210;2023-07-31T01:51:20;2.60;;;2.37;;
45684;SDS011;46836;48.388;16.210;2023-07-31T01:53:47;2.10;;;1.90;;
45684;SDS011;46836;48.388;16.210;2023-07-31T01:56:14;2.27;;;2.03;;
45684;SDS011;46836;48.388;16.210;2023-07-31T01:58:41;3.87;;;2.20;;
45684;SDS011;46836;48.388;16.210;2023-07-31T02:01:08;4.80;;;2.00;;
45684;SDS011;46836;48.388;16.210;2023-07-31T02:03:35;2.33;;;2.03;;
45684;SDS011;46836;48.388;16.210;2023-07-31T02:06:02;3.17;;;2.00;;
45684;SDS011;46836;48.388;16.210;2023-07-31T02:08:29;3.37;;;2.23;;
45684;SDS011;46836;48.388;16.210;2023-07-31T02:10:56;3.93;;;2.23;;
45684;SDS011;46836;48.388;16.210;2023-07-31T02:13:23;2.20;;;2.00;;
45684;SDS011;46836;48.388;16.210;2023-07-31T02:15:50;2.30;;;2.10;;
45684;SDS011;46836;48.388;16.210;2023-07-31T02:18:17;2.87;;;2.57;;
45684;SDS011;46836;48.388;16.210;2023-07-31T02:20:48;3.93;;;2.40;;
45684;SDS011;46836;48.388;16.210;2023-07-31T03:07:34;3.60;;;2.78;;
45684;SDS011;46836;48.388;16.210;2023-07-31T03:10:01;3.80;;;2.40;;
45684;SDS011;46836;48.388;16.210;2023-07-31T03:12:29;3.30;;;2.30;;
45684;SDS011;46836;48.388;16.210;2023-07-31T03:14:56;2.63;;;2.20;;
45684;SDS011;46836;48.388;16.210;2023-07-31T03:17:23;2.03;;;1.90;;
45684;SDS011;46836;48.388;16.210;2023-07-31T03:19:50;3.60;;;2.40;;
45684;SDS011;46836;48.388;16.210;2023-07-31T03:22:17;3.20;;;2.63;;
45684;SDS011;46836;48.388;16.210;2023-07-31T03:24:44;3.87;;;2.50;;
45684;SDS011;46836;48.388;16.210;2023-07-31T03:27:11;2.50;;;2.30;;
45684;SDS011;46836;48.388;16.210;2023-07-31T03:29:38;2.03;;;1.90;;
45684;SDS011;46836;48.388;16.210;2023-07-31T03:32:08;5.23;;;2.60;;
45684;SDS011;46836;48.388;16.210;2023-07-31T03:34:35;4.37;;;2.87;;
45684;SDS011;46836;48.388;16.210;2023-07-31T03:37:02;4.00;;;2.83;;
45684;SDS011;46836;48.388;16.210;2023-07-31T03:39:31;5.00;;;2.63;;
45684;SDS011;46836;48.388;16.210;2023-07-31T03:41:58;2.63;;;2.00;;
45684;SDS011;46836;48.388;16.210;2023-07-31T03:44:25;3.00;;;2.40;;
45684;SDS011;46836;48.388;16.210;2023-07-31T03:46:52;2.77;;;2.40;;
45684;SDS011;46836;48.388;16.210;2023-07-31T03:49:19;3.80;;;2.60;;
45684;SDS011;46836;48.388;16.210;2023-07-31T03:51:47;2.13;;;1.93;;
45684;SDS011;46836;48.388;16.210;2023-07-31T03:54:14;2.90;;;2.40;;
45684;SDS011;46836;48.388;16.210;2023-07-31T03:56:41;2.10;;;1.90;;
45684;SDS011;46836;48.388;16.210;2023-07-31T03:59:09;5.67;;;2.47;;
45684;SDS011;46836;48.388;16.210;2023-07-31T04:01:36;2.80;;;2.60;;
45684;SDS011;46836;48.388;16.210;2023-07-31T04:04:03;4.23;;;2.40;;
45684;SDS011;46836;48.388;16.210;2023-07-31T04:06:31;2.40;;;2.20;;
45684;SDS011;46836;48.388;16.210;2023-07-31T04:08:58;3.03;;;2.40;;
45684;SDS011;46836;48.388;16.210;2023-07-31T04:11:26;2.80;;;2.20;;
45684;SDS011;46836;48.388;16.210;2023-07-31T04:13:53;3.50;;;2.67;;
45684;SDS011;46836;48.388;16.210;2023-07-31T04:16:20;3.47;;;2.50;;
45684;SDS011;46836;48.388;16.210;2023-07-31T04:18:47;3.10;;;2.53;;
45684;SDS011;46836;48.388;16.210;2023-07-31T04:21:14;3.17;;;2.50;;
45684;SDS011;46836;48.388;16.210;2023-07-31T04:23:42;7.70;;;3.00;;
45684;SDS011;46836;48.388;16.210;2023-07-31T04:26:09;3.17;;;2.80;;
45684;SDS011;46836;48.388;16.210;2023-07-31T04:28:36;3.00;;;2.70;;
45684;SDS011;46836;48.388;16.210;2023-07-31T04:31:03;3.20;;;2.90;;
45684;SDS011;46836;48.388;16.210;2023-07-31T04:33:30;2.87;;;2.57;;
45684;SDS011;46836;48.388;16.210;2023-07-31T04:35:58;2.43;;;2.23;;
45684;SDS011;46836;48.388;16.210;2023-07-31T04:38:25;2.90;;;2.60;;
45684;SDS011;46836;48.388;16.210;2023-07-31T04:40:52;2.80;;;2.60;;
45684;SDS011;46836;48.388;16.210;2023-07-31T04:43:20;2.80;;;2.30;;
45684;SDS011;46836;48.388;16.210;2023-07-31T04:45:47;3.10;;;2.63;;
45684;SDS011;46836;48.388;16.210;2023-07-31T04:48:15;2.57;;;2.37;;
45684;SDS011;46836;48.388;16.210;2023-07-31T04:50:42;2.73;;;2.53;;
45684;SDS011;46836;48.388;16.210;2023-07-31T04:53:09;2.80;;;2.50;;
45684;SDS011;46836;48.388;16.210;2023-07-31T04:55:36;3.00;;;2.70;;
45684;SDS011;46836;48.388;16.210;2023-07-31T04:58:03;3.23;;;2.93;;
45684;SDS011;46836;48.388;16.210;2023-07-31T05:00:30;3.07;;;2.77;;
45684;SDS011;46836;48.388;16.210;2023-07-31T05:02:57;5.50;;;3.00;;
45684;SDS011;46836;48.388;16.210;2023-07-31T05:05:24;3.20;;;2.90;;
45684;SDS011;46836;48.388;16.210;2023-07-31T05:07:52;4.33;;;2.90;;
45684;SDS011;46836;48.388;16.210;2023-07-31T05:10:19;4.10;;;2.57;;
45684;SDS011;46836;48.388;16.210;2023-07-31T05:12:46;3.63;;;3.00;;
45684;SDS011;46836;48.388;16.210;2023-07-31T05:15:13;5.63;;;3.10;;
45684;SDS011;46836;48.388;16.210;2023-07-31T05:17:42;3.30;;;3.00;;
45684;SDS011;46836;48.388;16.210;2023-07-31T05:20:09;4.23;;;2.90;;
45684;SDS011;46836;48.388;16.210;2023-07-31T05:22:37;4.00;;;3.20;;
45684;SDS011;46836;48.388;16.210;2023-07-31T05:25:04;4.23;;;3.03;;
45684;SDS011;46836;48.388;16.210;2023-07-31T05:27:32;3.83;;;3.00;;
45684;SDS011;46836;48.388;16.210;2023-07-31T05:29:59;3.43;;;3.13;;
45684;SDS011;46836;48.388;16.210;2023-07-31T05:32:26;6.60;;;3.50;;
45684;SDS011;46836;48.388;16.210;2023-07-31T05:34:53;3.20;;;3.00;;
45684;SDS011;46836;48.388;16.210;2023-07-31T05:37:21;4.83;;;3.23;;
45684;SDS011;46836;48.388;16.210;2023-07-31T05:39:48;4.20;;;3.40;;
45684;SDS011;46836;48.388;16.210;2023-07-31T05:42:15;3.57;;;3.27;;
45684;SDS011;46836;48.388;16.210;2023-07-31T05:44:42;3.50;;;3.00;;
45684;SDS011;46836;48.388;16.210;2023-07-31T05:47:10;2.83;;;2.60;;
45684;SDS011;46836;48.388;16.210;2023-07-31T05:49:37;4.07;;;3.30;;
45684;SDS011;46836;48.388;16.210;2023-07-31T05:52:04;3.30;;;2.80;;
45684;SDS011;46836;48.388;16.210;2023-07-31T05:54:31;5.67;;;3.10;;
45684;SDS011;46836;48.388;16.210;2023-07-31T05:56:59;3.30;;;3.00;;
45684;SDS011;46836;48.388;16.210;2023-07-31T05:59:26;3.10;;;2.77;;
45684;SDS011;46836;48.388;16.210;2023-07-31T06:01:54;5.33;;;2.60;;
45684;SDS011;46836;48.388;16.210;2023-07-31T06:04:21;3.70;;;3.40;;
45684;SDS011;46836;48.388;16.210;2023-07-31T06:06:51;4.07;;;3.27;;
45684;SDS011;46836;48.388;16.210;2023-07-31T06:09:18;3.77;;;3.47;;
45684;SDS011;46836;48.388;16.210;2023-07-31T06:11:46;6.10;;;3.20;;
45684;SDS011;46836;48.388;16.210;2023-07-31T06:14:13;3.60;;;3.30;;
45684;SDS011;46836;48.388;16.210;2023-07-31T06:16:41;4.53;;;3.13;;
45684;SDS011;46836;48.388;16.210;2023-07-31T06:19:08;3.97;;;3.10;;
45684;SDS011;46836;48.388;16.210;2023-07-31T06:21:35;2.93;;;2.73;;
45684;SDS011;46836;48.388;16.210;2023-07-31T06:24:06;5.37;;;3.27;;
45684;SDS011;46836;48.388;16.210;2023-07-31T06:26:33;4.17;;;3.20;;
45684;SDS011;46836;48.388;16.210;2023-07-31T06:29:00;4.27;;;3.00;;
45684;SDS011;46836;48.388;16.210;2023-07-31T06:31:27;3.50;;;3.20;;
45684;SDS011;46836;48.388;16.210;2023-07-31T06:33:57;2.87;;;2.50;;
45684;SDS011;46836;48.388;16.210;2023-07-31T06:36:26;4.93;;;4.00;;
45684;SDS011;46836;48.388;16.210;2023-07-31T06:38:53;4.00;;;3.30;;
45684;SDS011;46836;48.388;16.210;2023-07-31T06:41:20;5.17;;;3.20;;
45684;SDS011;46836;48.388;16.210;2023-07-31T06:43:47;3.60;;;2.90;;
45684;SDS011;46836;48.388;16.210;2023-07-31T06:46:14;3.83;;;3.30;;
45684;SDS011;46836;48.388;16.210;2023-07-31T06:48:41;3.50;;;2.70;;
45684;SDS011;46836;48.388;16.210;2023-07-31T06:51:08;5.30;;;2.27;;
45684;SDS011;46836;48.388;16.210;2023-07-31T06:53:36;4.10;;;2.70;;
45684;SDS011;46836;48.388;16.210;2023-07-31T06:56:03;3.70;;;3.00;;
45684;SDS011;46836;48.388;16.210;2023-07-31T06:58:31;5.03;;;2.50;;
45684;SDS011;46836;48.388;16.210;2023-07-31T07:00:58;2.53;;;2.20;;
45684;SDS011;46836;48.388;16.210;2023-07-31T07:03:25;4.33;;;2.47;;
45684;SDS011;46836;48.388;16.210;2023-07-31T07:05:52;3.60;;;2.47;;
45684;SDS011;46836;48.388;16.210;2023-07-31T07:08:21;2.63;;;2.30;;
45684;SDS011;46836;48.388;16.210;2023-07-31T07:10:51;4.70;;;2.30;;
45684;SDS011;46836;48.388;16.210;2023-07-31T07:13:18;3.53;;;2.13;;
45684;SDS011;46836;48.388;16.210;2023-07-31T07:15:48;3.23;;;2.33;;
45684;SDS011;46836;48.388;16.210;2023-07-31T07:18:16;5.37;;;2.60;;
45684;SDS011;46836;48.388;16.210;2023-07-31T07:20:49;4.20;;;2.67;;
45684;SDS011;46836;48.388;16.210;2023-07-31T07:23:18;3.23;;;2.20;;
45684;SDS011;46836;48.388;16.210;2023-07-31T07:25:45;8.30;;;2.53;;
45684;SDS011;46836;48.388;16.210;2023-07-31T07:28:14;3.97;;;2.27;;
45684;SDS011;46836;48.388;16.210;2023-07-31T07:30:41;3.33;;;1.73;;
45684;SDS011;46836;48.388;16.210;2023-07-31T07:33:10;1.87;;;1.60;;
45684;SDS011;46836;48.388;16.210;2023-07-31T07:35:38;3.80;;;2.00;;
45684;SDS011;46836;48.388;16.210;2023-07-31T07:38:05;5.30;;;1.90;;
45684;SDS011;46836;48.388;16.210;2023-07-31T07:40:33;3.77;;;1.63;;
45684;SDS011;46836;48.388;16.210;2023-07-31T07:43:04;2.83;;;1.73;;
45684;SDS011;46836;48.388;16.210;2023-07-31T07:45:31;4.40;;;2.20;;
45684;SDS011;46836;48.388;16.210;2023-07-31T07:47:58;5.10;;;1.87;;
45684;SDS011;46836;48.388;16.210;2023-07-31T07:50:26;3.57;;;2.00;;
45684;SDS011;46836;48.388;16.210;2023-07-31T07:52:53;2.50;;;1.60;;
45684;SDS011;46836;48.388;16.210;2023-07-31T07:55:20;2.73;;;1.63;;
45684;SDS011;46836;48.388;16.210;2023-07-31T07:57:47;5.63;;;1.77;;
45684;SDS011;46836;48.388;16.210;2023-07-31T08:00:17;3.73;;;2.10;;
45684;SDS011;46836;48.388;16.210;2023-07-31T08:02:44;3.70;;;1.83;;
45684;SDS011;46836;48.388;16.210;2023-07-31T08:05:12;5.40;;;2.60;;
45684;SDS011;46836;48.388;16.210;2023-07-31T08:07:39;3.43;;;1.80;;
45684;SDS011;46836;48.388;16.210;2023-07-31T08:10:07;4.67;;;2.33;;
45684;SDS011;46836;48.388;16.210;2023-07-31T08:12:34;5.00;;;1.77;;
45684;SDS011;46836;48.388;16.210;2023-07-31T08:15:02;4.40;;;1.90;;
45684;SDS011;46836;48.388;16.210;2023-07-31T08:17:29;3.37;;;1.97;;
45684;SDS011;46836;48.388;16.210;2023-07-31T08:19:56;3.67;;;1.80;;
45684;SDS011;46836;48.388;16.210;2023-07-31T08:22:24;2.67;;;1.63;;
45684;SDS011;46836;48.388;16.210;2023-07-31T08:24:52;3.27;;;2.20;;
45684;SDS011;46836;48.388;16.210;2023-07-31T08:27:19;3.90;;;2.10;;
45684;SDS011;46836;48.388;16.210;2023-07-31T08:29:46;2.70;;;1.90;;
45684;SDS011;46836;48.388;16.210;2023-07-31T08:32:13;5.13;;;2.83;;
45684;SDS011;46836;48.388;16.210;2023-07-31T08:34:40;4.20;;;2.13;;
45684;SDS011;46836;48.388;16.210;2023-07-31T08:37:08;5.77;;;2.07;;
45684;SDS011;46836;48.388;16.210;2023-07-31T08:39:35;2.87;;;1.80;;
45684;SDS011;46836;48.388;16.210;2023-07-31T08:42:08;4.80;;;2.13;;
45684;SDS011;46836;48.388;16.210;2023-07-31T08:44:36;3.13;;;1.67;;
45684;SDS011;46836;48.388;16.210;2023-07-31T08:47:04;5.50;;;2.00;;
45684;SDS011;46836;48.388;16.210;2023-07-31T08:49:32;2.97;;;1.60;;
45684;SDS011;46836;48.388;16.210;2023-07-31T08:52:01;3.27;;;1.90;;
45684;SDS011;46836;48.388;16.210;2023-07-31T08:54:29;3.40;;;1.90;;
45684;SDS011;46836;48.388;16.210;2023-07-31T08:56:57;2.97;;;1.77;;
45684;SDS011;46836;48.388;16.210;2023-07-31T08:59:28;2.20;;;1.97;;
45684;SDS011;46836;48.388;16.210;2023-07-31T09:01:57;2.20;;;1.47;;
45684;SDS011;46836;48.388;16.210;2023-07-31T09:04:32;5.33;;;1.70;;
45684;SDS011;46836;48.388;16.210;2023-07-31T09:07:00;2.37;;;1.60;;
45684;SDS011;46836;48.388;16.210;2023-07-31T09:09:31;2.83;;;1.67;;
45684;SDS011;46836;48.388;16.210;2023-07-31T09:11:58;2.50;;;1.50;;
45684;SDS011;46836;48.388;16.210;2023-07-31T09:14:25;3.43;;;1.60;;
45684;SDS011;46836;48.388;16.210;2023-07-31T09:16:54;2.33;;;1.73;;
45684;SDS011;46836;48.388;16.210;2023-07-31T09:19:25;3.80;;;1.97;;
45684;SDS011;46836;48.388;16.210;2023-07-31T09:22:00;2.87;;;1.60;;
45684;SDS011;46836;48.388;16.210;2023-07-31T09:24:29;2.47;;;1.40;;
45684;SDS011;46836;48.388;16.210;2023-07-31T09:26:59;5.47;;;2.30;;
45684;SDS011;46836;48.388;16.210;2023-07-31T09:29:28;5.60;;;1.87;;
45684;SDS011;46836;48.388;16.210;2023-07-31T09:31:56;5.73;;;1.60;;
45684;SDS011;46836;48.388;16.210;2023-07-31T09:34:36;3.40;;;2.00;;
45684;SDS011;46836;48.388;16.210;2023-07-31T09:37:07;3.23;;;2.20;;
45684;SDS011;46836;48.388;16.210;2023-07-31T09:39:44;3.90;;;2.10;;
45684;SDS011;46836;48.388;16.210;2023-07-31T09:42:13;3.27;;;2.00;;
45684;SDS011;46836;48.388;16.210;2023-07-31T09:44:40;3.30;;;1.80;;
45684;SDS011;46836;48.388;16.210;2023-07-31T09:47:20;3.80;;;1.90;;
45684;SDS011;46836;48.388;16.210;2023-07-31T09:49:51;3.70;;;1.63;;
45684;SDS011;46836;48.388;16.210;2023-07-31T09:52:19;2.87;;;1.67;;
45684;SDS011;46836;48.388;16.210;2023-07-31T09:54:46;3.20;;;1.60;;
45684;SDS011;46836;48.388;16.210;2023-07-31T09:57:13;2.53;;;1.57;;
45684;SDS011;46836;48.388;16.210;2023-07-31T09:59:43;3.77;;;1.80;;
45684;SDS011;46836;48.388;16.210;2023-07-31T10:02:14;2.00;;;1.50;;
45684;SDS011;46836;48.388;16.210;2023-07-31T10:04:48;3.63;;;1.67;;
45684;SDS011;46836;48.388;16.210;2023-07-31T10:07:17;3.77;;;1.67;;
45684;SDS011;46836;48.388;16.210;2023-07-31T10:09:45;3.20;;;1.43;;
45684;SDS011;46836;48.388;16.210;2023-07-31T10:12:14;3.73;;;1.73;;
45684;SDS011;46836;48.388;16.210;2023-07-31T10:14:45;2.90;;;1.83;;
45684;SDS011;46836;48.388;16.210;2023-07-31T10:17:12;2.63;;;1.57;;
45684;SDS011;46836;48.388;16.210;2023-07-31T10:19:41;2.70;;;1.70;;
45684;SDS011;46836;48.388;16.210;2023-07-31T10:22:09;4.80;;;1.90;;
45684;SDS011;46836;48.388;16.210;2023-07-31T10:24:39;2.10;;;1.63;;
45684;SDS011;46836;48.388;16.210;2023-07-31T10:27:09;2.00;;;1.50;;
45684;SDS011;46836;48.388;16.210;2023-07-31T10:29:37;3.43;;;1.50;;
45684;SDS011;46836;48.388;16.210;2023-07-31T10:32:06;2.60;;;1.70;;
45684;SDS011;46836;48.388;16.210;2023-07-31T10:34:38;2.17;;;1.70;;
45684;SDS011;46836;48.388;16.210;2023-07-31T10:37:25;2.73;;;1.53;;
45684;SDS011;46836;48.388;16.210;2023-07-31T10:40:04;3.30;;;1.63;;
45684;SDS011;46836;48.388;16.210;2023-07-31T10:42:52;3.40;;;1.53;;
45684;SDS011;46836;48.388;16.210;2023-07-31T10:45:36;3.37;;;1.70;;
45684;SDS011;46836;48.388;16.210;2023-07-31T10:48:06;4.37;;;1.97;;
45684;SDS011;46836;48.388;16.210;2023-07-31T10:50:54;1.83;;;1.53;;
45684;SDS011;46836;48.388;16.210;2023-07-31T10:53:26;2.30;;;1.53;;
45684;SDS011;46836;48.388;16.210;2023-07-31T10:56:02;2.20;;;1.83;;
45684;SDS011;46836;48.388;16.210;2023-07-31T10:58:31;3.30;;;1.97;;
45684;SDS011;46836;48.388;16.210;2023-07-31T11:01:00;9.80;;;1.87;;
45684;SDS011;46836;48.388;16.210;2023-07-31T11:06:12;3.30;;;2.00;;
45684;SDS011;46836;48.388;16.210;2023-07-31T11:08:44;3.70;;;1.50;;
45684;SDS011;46836;48.388;16.210;2023-07-31T11:11:14;4.50;;;1.70;;
45684;SDS011;46836;48.388;16.210;2023-07-31T11:16:18;5.03;;;1.70;;
45684;SDS011;46836;48.388;16.210;2023-07-31T11:18:46;2.10;;;1.40;;
45684;SDS011;46836;48.388;16.210;2023-07-31T11:21:15;1.63;;;1.43;;
45684;SDS011;46836;48.388;16.210;2023-07-31T11:23:47;3.00;;;1.43;;
45684;SDS011;46836;48.388;16.210;2023-07-31T11:26:16;2.93;;;1.63;;
45684;SDS011;46836;48.388;16.210;2023-07-31T11:28:46;2.97;;;1.53;;
45684;SDS011;46836;48.388;16.210;2023-07-31T11:31:14;3.63;;;1.50;;
45684;SDS011;46836;48.388;16.210;2023-07-31T11:33:42;4.20;;;1.43;;
45684;SDS011;46836;48.388;16.210;2023-07-31T11:36:16;3.17;;;1.57;;
45684;SDS011;46836;48.388;16.210;2023-07-31T11:38:45;2.40;;;1.60;;
45684;SDS011;46836;48.388;16.210;2023-07-31T11:41:16;3.10;;;1.40;;
45684;SDS011;46836;48.388;16.210;2023-07-31T11:43:45;3.03;;;1.53;;
45684;SDS011;46836;48.388;16.210;2023-07-31T11:46:14;2.70;;;1.33;;
45684;SDS011;46836;48.388;16.210;2023-07-31T11:48:42;3.60;;;1.70;;
45684;SDS011;46836;48.388;16.210;2023-07-31T11:51:10;2.93;;;1.50;;
45684;SDS011;46836;48.388;16.210;2023-07-31T11:53:43;1.53;;;1.37;;
45684;SDS011;46836;48.388;16.210;2023-07-31T11:56:13;2.53;;;1.40;;
45684;SDS011;46836;48.388;16.210;2023-07-31T11:58:43;1.77;;;1.40;;
45684;SDS011;46836;48.388;16.210;2023-07-31T12:01:14;3.00;;;1.90;;
45684;SDS011;46836;48.388;16.210;2023-07-31T12:03:47;2.60;;;1.60;;
45684;SDS011;46836;48.388;16.210;2023-07-31T12:06:14;2.70;;;1.57;;
45684;SDS011;46836;48.388;16.210;2023-07-31T12:08:41;4.30;;;2.17;;
45684;SDS011;46836;48.388;16.210;2023-07-31T12:11:09;2.53;;;1.70;;
45684;SDS011;46836;48.388;16.210;2023-07-31T12:13:36;3.00;;;1.70;;
45684;SDS011;46836;48.388;16.210;2023-07-31T12:16:04;2.37;;;1.47;;
45684;SDS011;46836;48.388;16.210;2023-07-31T12:18:35;2.67;;;1.70;;
45684;SDS011;46836;48.388;16.210;2023-07-31T12:21:05;2.60;;;1.80;;
45684;SDS011;46836;48.388;16.210;2023-07-31T12:23:36;3.07;;;1.77;;
45684;SDS011;46836;48.388;16.210;2023-07-31T12:28:38;3.17;;;2.40;;
45684;SDS011;46836;48.388;16.210;2023-07-31T12:31:10;5.00;;;1.70;;
45684;SDS011;46836;48.388;16.210;2023-07-31T12:33:49;1.80;;;1.57;;
45684;SDS011;46836;48.388;16.210;2023-07-31T12:36:18;2.57;;;1.87;;
45684;SDS011;46836;48.388;16.210;2023-07-31T12:38:47;3.23;;;1.80;;
45684;SDS011;46836;48.388;16.210;2023-07-31T12:41:16;5.13;;;2.30;;
45684;SDS011;46836;48.388;16.210;2023-07-31T12:43:43;1.60;;;1.40;;
45684;SDS011;46836;48.388;16.210;2023-07-31T12:46:11;2.97;;;2.17;;
45684;SDS011;46836;48.388;16.210;2023-07-31T12:48:40;2.80;;;1.77;;
45684;SDS011;46836;48.388;16.210;2023-07-31T12:51:07;3.27;;;1.80;;
45684;SDS011;46836;48.388;16.210;2023-07-31T12:53:34;3.50;;;1.90;;
45684;SDS011;46836;48.388;16.210;2023-07-31T12:56:02;2.60;;;1.70;;
45684;SDS011;46836;48.388;16.210;2023-07-31T12:58:30;3.37;;;2.00;;
45684;SDS011;46836;48.388;16.210;2023-07-31T13:00:57;2.07;;;1.80;;
45684;SDS011;46836;48.388;16.210;2023-07-31T13:03:24;3.43;;;1.83;;
45684;SDS011;46836;48.388;16.210;2023-07-31T13:05:52;4.43;;;1.80;;
45684;SDS011;46836;48.388;16.210;2023-07-31T13:08:19;2.97;;;1.60;;
45684;SDS011;46836;48.388;16.210;2023-07-31T13:10:46;1.90;;;1.67;;
45684;SDS011;46836;48.388;16.210;2023-07-31T13:13:13;3.83;;;1.80;;
45684;SDS011;46836;48.388;16.210;2023-07-31T13:15:40;2.27;;;2.07;;
45684;SDS011;46836;48.388;16.210;2023-07-31T13:18:08;2.00;;;1.57;;
45684;SDS011;46836;48.388;16.210;2023-07-31T13:20:35;2.70;;;1.80;;
45684;SDS011;46836;48.388;16.210;2023-07-31T13:23:02;2.83;;;1.67;;
45684;SDS011;46836;48.388;16.210;2023-07-31T13:25:29;3.60;;;2.43;;
45684;SDS011;46836;48.388;16.210;2023-07-31T13:27:57;3.40;;;1.90;;
45684;SDS011;46836;48.388;16.210;2023-07-31T13:30:28;3.33;;;1.83;;
45684;SDS011;46836;48.388;16.210;2023-07-31T13:32:55;3.30;;;2.30;;
45684;SDS011;46836;48.388;16.210;2023-07-31T13:35:22;2.63;;;1.90;;
45684;SDS011;46836;48.388;16.210;2023-07-31T13:37:49;3.97;;;1.70;;
45684;SDS011;46836;48.388;16.210;2023-07-31T13:40:16;1.70;;;1.60;;
45684;SDS011;46836;48.388;16.210;2023-07-31T13:42:43;3.80;;;1.87;;
45684;SDS011;46836;48.388;16.210;2023-07-31T13:45:10;2.40;;;1.67;;
45684;SDS011;46836;48.388;16.210;2023-07-31T13:47:37;2.40;;;2.07;;
45684;SDS011;46836;48.388;16.210;2023-07-31T13:50:04;3.23;;;1.67;;
45684;SDS011;46836;48.388;16.210;2023-07-31T13:52:32;2.10;;;1.90;;
45684;SDS011;46836;48.388;16.210;2023-07-31T13:54:59;3.37;;;1.70;;
45684;SDS011;46836;48.388;16.210;2023-07-31T13:57:26;4.10;;;1.60;;
45684;SDS011;46836;48.388;16.210;2023-07-31T13:59:53;2.37;;;1.80;;
45684;SDS011;46836;48.388;16.210;2023-07-31T14:02:20;2.97;;;1.43;;
45684;SDS011;46836;48.388;16.210;2023-07-31T14:04:47;1.57;;;1.23;;
45684;SDS011;46836;48.388;16.210;2023-07-31T14:07:14;3.00;;;1.70;;
45684;SDS011;46836;48.388;16.210;2023-07-31T14:09:41;1.67;;;1.33;;
45684;SDS011;46836;48.388;16.210;2023-07-31T14:12:08;3.40;;;1.30;;
45684;SDS011;46836;48.388;16.210;2023-07-31T14:14:36;2.27;;;1.70;;
45684;SDS011;46836;48.388;16.210;2023-07-31T14:17:03;3.80;;;1.70;;
45684;SDS011;46836;48.388;16.210;2023-07-31T14:19:30;4.47;;;1.70;;
45684;SDS011;46836;48.388;16.210;2023-07-31T14:21:58;2.97;;;1.73;;
45684;SDS011;46836;48.388;16.210;2023-07-31T14:24:37;2.90;;;1.60;;
45684;SDS011;46836;48.388;16.210;2023-07-31T14:27:04;2.57;;;1.80;;
45684;SDS011;46836;48.388;16.210;2023-07-31T14:29:32;2.73;;;1.83;;
45684;SDS011;46836;48.388;16.210;2023-07-31T14:31:59;4.03;;;1.80;;
45684;SDS011;46836;48.388;16.210;2023-07-31T14:34:26;2.10;;;1.60;;
45684;SDS011;46836;48.388;16.210;2023-07-31T14:36:53;4.23;;;1.67;;
45684;SDS011;46836;48.388;16.210;2023-07-31T14:39:20;4.60;;;2.00;;
45684;SDS011;46836;48.388;16.210;2023-07-31T14:41:48;5.50;;;2.00;;
45684;SDS011;46836;48.388;16.210;2023-07-31T14:44:15;5.07;;;2.20;;
45684;SDS011;46836;48.388;16.210;2023-07-31T14:46:42;4.60;;;2.00;;
45684;SDS011;46836;48.388;16.210;2023-07-31T14:49:09;3.63;;;1.63;;
45684;SDS011;46836;48.388;16.210;2023-07-31T14:51:36;5.50;;;1.70;;
45684;SDS011;46836;48.388;16.210;2023-07-31T14:54:07;2.60;;;1.93;;
45684;SDS011;46836;48.388;16.210;2023-07-31T14:56:35;3.60;;;1.87;;
45684;SDS011;46836;48.388;16.210;2023-07-31T14:59:02;2.53;;;1.80;;
45684;SDS011;46836;48.388;16.210;2023-07-31T15:01:29;2.43;;;1.83;;
45684;SDS011;46836;48.388;16.210;2023-07-31T15:03:56;2.27;;;1.67;;
45684;SDS011;46836;48.388;16.210;2023-07-31T15:06:23;3.30;;;1.90;;
45684;SDS011;46836;48.388;16.210;2023-07-31T15:08:50;3.20;;;1.83;;
45684;SDS011;46836;48.388;16.210;2023-07-31T15:11:17;2.10;;;1.40;;
45684;SDS011;46836;48.388;16.210;2023-07-31T15:13:44;4.20;;;2.20;;
45684;SDS011;46836;48.388;16.210;2023-07-31T15:16:12;3.33;;;2.13;;
45684;SDS011;46836;48.388;16.210;2023-07-31T15:18:39;2.50;;;1.73;;
45684;SDS011;46836;48.388;16.210;2023-07-31T15:21:06;4.27;;;2.00;;
45684;SDS011;46836;48.388;16.210;2023-07-31T15:23:35;2.40;;;1.77;;
45684;SDS011;46836;48.388;16.210;2023-07-31T15:26:04;4.70;;;2.00;;
45684;SDS011;46836;48.388;16.210;2023-07-31T15:28:35;2.27;;;1.90;;
45684;SDS011;46836;48.388;16.210;2023-07-31T15:31:04;2.20;;;2.00;;
45684;SDS011;46836;48.388;16.210;2023-07-31T15:33:31;4.23;;;1.90;;
45684;SDS011;46836;48.388;16.210;2023-07-31T15:36:04;2.70;;;1.67;;